createdAt,value
2018-03-16T00:01:48.489Z,75.20
2018-03-16T00:04:15.989Z,75.10
2018-03-16T00:06:43.712Z,75.50
2018-03-16T00:09:11.188Z,75.70
2018-03-16T00:11:38.808Z,76.20
2018-03-16T00:14:06.297Z,76.60
2018-03-16T00:16:33.848Z,76.70
2018-03-16T00:19:01.364Z,77.30
2018-03-16T00:21:31.293Z,77.20
2018-03-16T00:23:58.760Z,76.90
2018-03-16T00:26:26.256Z,76.30
2018-03-16T00:28:53.737Z,75.50
2018-03-16T00:31:21.397Z,75.90
2018-03-16T00:33:48.852Z,76.30
2018-03-16T00:36:16.341Z,76.30
2018-03-16T00:38:43.817Z,77.60
2018-03-16T00:41:11.313Z,77.40
2018-03-16T00:43:38.815Z,77.60
2018-03-16T00:46:06.315Z,77.80
2018-03-16T00:48:33.808Z,78.20
2018-03-16T00:51:01.306Z,78.20
2018-03-16T00:53:28.869Z,78.40
2018-03-16T00:55:57.144Z,78.90
2018-03-16T00:58:24.628Z,78.90
2018-03-16T01:00:52.093Z,79.60
2018-03-16T01:03:19.585Z,79.60
2018-03-16T01:05:47.857Z,80.00
2018-03-16T01:08:16.103Z,80.10
2018-03-16T01:10:44.566Z,80.10
2018-03-16T01:13:12.069Z,80.20
2018-03-16T01:15:39.533Z,80.20
2018-03-16T01:18:07.031Z,80.20
2018-03-16T01:20:40.228Z,80.20
2018-03-16T01:23:07.761Z,80.10
2018-03-16T01:25:35.269Z,80.10
2018-03-16T01:28:02.764Z,79.80
2018-03-16T01:30:31.026Z,80.10
2018-03-16T01:32:58.521Z,80.10
2018-03-16T01:35:26.779Z,79.70
2018-03-16T01:37:54.265Z,79.60
2018-03-16T01:40:21.766Z,80.20
2018-03-16T01:42:49.252Z,80.00
2018-03-16T01:45:16.749Z,79.70
2018-03-16T01:47:44.241Z,80.20
2018-03-16T01:50:11.739Z,80.10
2018-03-16T01:52:57.350Z,80.70
2018-03-16T01:55:24.836Z,81.10
2018-03-16T01:57:52.333Z,81.20
2018-03-16T02:00:20.033Z,81.30
2018-03-16T02:02:48.268Z,80.70
2018-03-16T02:05:37.517Z,80.70
2018-03-16T02:08:05.776Z,80.70
2018-03-16T02:10:33.261Z,80.70
2018-03-16T02:13:02.233Z,80.60
2018-03-16T02:15:31.456Z,80.60
2018-03-16T02:17:58.970Z,80.80
2018-03-16T02:20:26.481Z,80.80
2018-03-16T02:22:53.953Z,80.90
2018-03-16T02:25:21.564Z,81.00
2018-03-16T02:27:49.384Z,81.10
2018-03-16T02:30:16.894Z,81.20
2018-03-16T02:32:44.377Z,81.10
2018-03-16T02:35:12.622Z,81.40
2018-03-16T02:37:40.154Z,81.30
2018-03-16T02:40:31.613Z,81.10
2018-03-16T02:43:00.001Z,81.80
2018-03-16T02:45:27.491Z,81.80
2018-03-16T02:47:54.964Z,82.00
2018-03-16T02:50:22.731Z,81.60
2018-03-16T02:52:55.022Z,81.80
2018-03-16T02:55:22.514Z,81.80
2018-03-16T02:57:49.990Z,81.60
2018-03-16T03:00:17.479Z,81.90
2018-03-16T03:02:45.761Z,81.90
2018-03-16T03:05:13.990Z,81.80
2018-03-16T03:07:41.549Z,81.80
2018-03-16T03:10:09.274Z,81.90
2018-03-16T03:12:36.729Z,81.60
2018-03-16T03:15:04.201Z,82.10
2018-03-16T03:17:31.693Z,82.00
2018-03-16T03:20:04.014Z,82.10
2018-03-16T03:22:32.372Z,82.00
2018-03-16T03:25:00.683Z,82.30
2018-03-16T03:27:28.127Z,82.30
2018-03-16T03:29:56.374Z,81.90
2018-03-16T03:32:23.847Z,81.90
2018-03-16T03:34:51.352Z,82.10
2018-03-16T03:37:19.607Z,82.20
2018-03-16T03:39:47.206Z,82.10
2018-03-16T03:42:15.469Z,82.40
2018-03-16T03:44:42.928Z,82.40
2018-03-16T03:47:10.820Z,82.30
2018-03-16T03:49:38.305Z,82.50
2018-03-16T03:52:05.784Z,82.40
2018-03-16T03:54:34.036Z,82.50
2018-03-16T03:57:01.513Z,82.50
2018-03-16T03:59:29.011Z,82.50
2018-03-16T04:01:57.365Z,82.00
2018-03-16T04:04:33.674Z,82.00
2018-03-16T04:07:02.078Z,82.20
2018-03-16T04:09:30.349Z,81.90
2018-03-16T04:11:57.800Z,81.90
2018-03-16T04:14:25.274Z,82.00
2018-03-16T04:16:52.907Z,82.10
2018-03-16T04:19:20.417Z,82.10
2018-03-16T04:21:47.905Z,82.30
2018-03-16T04:24:16.540Z,82.70
2018-03-16T04:26:48.610Z,82.80
2018-03-16T04:29:16.134Z,83.30
2018-03-16T04:31:43.655Z,83.10
2018-03-16T04:34:11.959Z,82.40
2018-03-16T04:36:40.208Z,82.60
2018-03-16T04:39:11.966Z,82.50
2018-03-16T04:41:40.182Z,82.60
2018-03-16T04:44:07.694Z,82.50
2018-03-16T04:46:36.429Z,82.10
2018-03-16T04:49:04.629Z,82.10
2018-03-16T04:51:32.115Z,82.10
2018-03-16T04:53:59.603Z,83.00
2018-03-16T04:56:27.524Z,82.50
2018-03-16T04:58:55.768Z,83.20
2018-03-16T05:01:23.218Z,84.00
2018-03-16T05:03:50.718Z,82.80
2018-03-16T05:06:19.123Z,83.00
2018-03-16T05:11:44.229Z,83.00
2018-03-16T05:14:11.724Z,83.30
2018-03-16T05:16:39.222Z,83.20
2018-03-16T05:19:07.474Z,83.70
2018-03-16T05:21:34.974Z,83.30
2018-03-16T05:24:02.468Z,82.70
2018-03-16T05:26:29.992Z,83.10
2018-03-16T05:28:57.638Z,82.70
2018-03-16T05:31:25.127Z,83.00
2018-03-16T05:33:52.598Z,83.00
2018-03-16T05:36:20.085Z,83.20
2018-03-16T05:38:53.316Z,83.40
2018-03-16T05:41:29.456Z,83.20
2018-03-16T05:43:57.817Z,82.70
2018-03-16T05:46:25.285Z,82.70
2018-03-16T05:48:52.765Z,83.00
2018-03-16T05:51:20.552Z,83.00
2018-03-16T05:53:48.044Z,82.70
2018-03-16T05:56:38.533Z,83.10
2018-03-16T05:59:06.740Z,83.40
2018-03-16T06:01:49.872Z,83.40
2018-03-16T06:04:17.368Z,82.80
2018-03-16T06:06:51.650Z,83.20
2018-03-16T06:09:21.831Z,83.30
2018-03-16T06:11:52.001Z,83.00
2018-03-16T06:14:19.480Z,83.00
2018-03-16T06:17:11.396Z,83.40
2018-03-16T06:19:39.202Z,83.10
2018-03-16T06:22:16.985Z,83.00
2018-03-16T06:24:51.816Z,83.00
2018-03-16T06:27:19.344Z,82.80
2018-03-16T06:29:59.592Z,83.00
2018-03-16T06:32:31.544Z,83.00
2018-03-16T06:34:59.242Z,82.90
2018-03-16T06:37:26.827Z,82.90
2018-03-16T06:39:54.319Z,83.10
2018-03-16T06:42:26.969Z,83.10
2018-03-16T06:44:54.505Z,83.30
2018-03-16T06:47:28.128Z,83.40
2018-03-16T06:49:55.639Z,83.30
2018-03-16T06:52:23.123Z,82.70
2018-03-16T06:54:50.614Z,82.60
2018-03-16T06:57:19.157Z,82.60
2018-03-16T06:59:46.680Z,82.60
2018-03-16T07:02:28.244Z,83.40
2018-03-16T07:04:55.788Z,83.30
2018-03-16T07:10:18.954Z,83.70
2018-03-16T07:12:47.331Z,84.00
2018-03-16T07:15:27.717Z,84.10
2018-03-16T07:20:50.872Z,83.80
2018-03-16T07:23:30.136Z,83.90
2018-03-16T07:26:10.526Z,83.90
2018-03-16T07:28:45.479Z,83.80
2018-03-16T07:31:20.176Z,83.70
2018-03-16T07:33:47.667Z,83.70
2018-03-16T07:36:15.168Z,83.30
2018-03-16T07:38:56.285Z,83.10
2018-03-16T07:41:24.879Z,83.10
2018-03-16T07:43:52.437Z,83.70
2018-03-16T07:46:27.920Z,83.80
2018-03-16T07:49:00.001Z,83.70
2018-03-16T07:51:28.552Z,83.70
2018-03-16T07:53:59.879Z,83.80
2018-03-16T07:56:28.749Z,83.50
2018-03-16T07:58:59.680Z,83.50
2018-03-16T08:01:28.902Z,84.50
2018-03-16T08:03:59.655Z,84.40
2018-03-16T08:06:28.738Z,84.00
2018-03-16T08:09:00.773Z,84.00
2018-03-16T08:11:29.227Z,83.90
2018-03-16T08:13:56.717Z,83.60
2018-03-16T08:16:24.208Z,83.20
2018-03-16T08:18:52.661Z,83.40
2018-03-16T08:44:21.034Z,83.10
2018-03-16T08:46:48.544Z,83.10
2018-03-16T08:58:00.508Z,84.00
2018-03-16T09:03:29.036Z,83.90
2018-03-16T09:06:00.233Z,83.80
2018-03-16T09:08:29.090Z,83.80
2018-03-16T09:13:58.246Z,83.90
2018-03-16T09:16:29.496Z,83.90
2018-03-16T09:19:10.406Z,83.80
2018-03-16T09:46:12.114Z,85.30
2018-03-16T09:48:39.833Z,85.90
2018-03-16T09:51:07.436Z,86.10
2018-03-16T09:56:28.820Z,85.50
2018-03-16T09:58:58.958Z,85.20
2018-03-16T10:01:28.900Z,85.30
2018-03-16T10:04:09.259Z,85.30
2018-03-16T10:06:51.997Z,85.80
2018-03-16T10:09:19.457Z,85.20
2018-03-16T10:14:47.062Z,85.30
2018-03-16T10:17:22.486Z,84.50
2018-03-16T10:19:50.019Z,85.20
2018-03-16T10:22:20.576Z,84.30
2018-03-16T10:24:54.308Z,84.60
2018-03-16T10:27:23.981Z,84.00
2018-03-16T10:29:51.484Z,84.30
2018-03-16T10:32:18.979Z,85.30
2018-03-16T10:37:38.693Z,85.30
2018-03-16T10:43:32.921Z,84.60
2018-03-16T10:46:00.764Z,84.60
2018-03-16T10:48:54.682Z,84.90
2018-03-16T10:51:28.660Z,84.80
2018-03-16T10:53:58.621Z,84.60
2018-03-16T10:56:30.232Z,84.60
2018-03-16T10:59:01.962Z,84.70
2018-03-16T11:10:40.362Z,85.70
2018-03-16T11:16:00.370Z,86.20
2018-03-16T11:18:34.791Z,85.70
2018-03-16T11:21:24.836Z,84.90
2018-03-16T11:23:52.322Z,84.90
2018-03-16T11:26:19.848Z,85.10
2018-03-16T11:31:23.539Z,85.50
2018-03-16T11:33:59.240Z,85.80
2018-03-16T11:36:29.269Z,85.40
2018-03-16T11:39:00.294Z,85.40
2018-03-16T11:41:30.897Z,85.50
2018-03-16T11:43:59.404Z,85.50
2018-03-16T11:46:30.282Z,85.10
2018-03-16T11:48:59.148Z,84.90
2018-03-16T11:51:28.350Z,85.10
2018-03-16T11:53:59.194Z,85.70
2018-03-16T11:56:39.542Z,85.70
2018-03-16T12:01:48.378Z,85.90
2018-03-16T12:06:58.750Z,85.40
2018-03-16T12:09:39.186Z,85.30
2018-03-16T12:12:10.381Z,84.50
2018-03-16T12:14:58.893Z,84.30
2018-03-16T12:20:41.258Z,84.10
2018-03-16T12:23:08.828Z,84.10
2018-03-16T12:25:36.360Z,84.50
2018-03-16T12:28:07.922Z,84.90
2018-03-16T12:30:36.271Z,85.30
2018-03-16T12:33:16.587Z,84.70
2018-03-16T12:35:45.765Z,84.70
2018-03-16T12:38:28.886Z,84.20
2018-03-16T12:40:59.602Z,84.20
2018-03-16T12:43:33.011Z,84.70
2018-03-16T12:46:02.852Z,83.60
2018-03-16T12:48:35.249Z,84.10
2018-03-16T12:51:07.067Z,84.80
2018-03-16T12:53:42.714Z,84.80
2018-03-16T12:56:10.974Z,84.60
2018-03-16T13:01:37.339Z,85.10
2018-03-16T13:09:39.618Z,84.90
2018-03-16T13:12:14.603Z,85.30
2018-03-16T13:14:48.736Z,84.90
2018-03-16T13:17:19.852Z,85.10
2018-03-16T13:19:58.529Z,84.20
2018-03-16T13:22:27.749Z,84.10
2018-03-16T13:24:58.368Z,83.80
2018-03-16T13:27:27.944Z,83.50
2018-03-16T13:30:02.589Z,84.40
2018-03-16T13:32:30.097Z,83.50
2018-03-16T13:35:02.471Z,83.20
2018-03-16T13:37:30.611Z,84.50
2018-03-16T13:40:03.302Z,84.70
2018-03-16T13:42:31.647Z,84.70
2018-03-16T13:44:59.212Z,84.70
2018-03-16T13:50:28.535Z,84.00
2018-03-16T13:53:08.305Z,85.10
2018-03-16T13:58:20.088Z,85.10
2018-03-16T14:00:48.409Z,84.10
2018-03-16T14:05:51.913Z,83.60
2018-03-16T14:08:23.734Z,83.80
2018-03-16T14:10:53.772Z,83.60
2018-03-16T14:13:31.454Z,82.90
2018-03-16T14:15:59.117Z,83.80
2018-03-16T14:18:28.411Z,83.40
2018-03-16T14:20:57.358Z,82.40
2018-03-16T14:23:28.810Z,82.30
2018-03-16T14:26:00.019Z,83.30
2018-03-16T14:28:29.525Z,82.40
2018-03-16T14:30:59.140Z,82.70
2018-03-16T14:33:30.085Z,83.30
2018-03-16T14:35:58.139Z,83.00
2018-03-16T14:38:31.613Z,82.30
2018-03-16T14:40:59.200Z,81.80
2018-03-16T14:43:26.700Z,82.60
2018-03-16T14:45:58.541Z,82.90
2018-03-16T14:48:28.788Z,83.20
2018-03-16T14:51:00.107Z,83.60
2018-03-16T14:53:28.913Z,83.60
2018-03-16T14:55:58.635Z,82.80
2018-03-16T14:58:28.423Z,81.70
2018-03-16T15:01:00.190Z,82.10
2018-03-16T15:03:28.870Z,82.60
2018-03-16T15:05:58.826Z,83.00
2018-03-16T15:08:27.486Z,82.90
2018-03-16T15:11:13.672Z,83.20
2018-03-16T15:16:24.885Z,82.20
2018-03-16T15:18:53.049Z,82.20
2018-03-16T15:21:20.642Z,81.60
2018-03-16T15:23:49.061Z,80.70
2018-03-16T15:26:16.818Z,81.20
2018-03-16T15:28:44.477Z,80.00
2018-03-16T15:31:12.006Z,79.40
2018-03-16T15:33:40.245Z,78.50
2018-03-16T15:36:08.597Z,79.40
2018-03-16T15:38:37.005Z,79.60
2018-03-16T15:41:04.520Z,79.50
2018-03-16T15:43:32.026Z,80.90
2018-03-16T15:45:59.594Z,79.50
2018-03-16T15:48:27.147Z,78.30
2018-03-16T15:51:18.064Z,77.10
2018-03-16T15:53:48.470Z,78.70
2018-03-16T15:56:19.829Z,80.90
2018-03-16T16:02:14.012Z,83.40
2018-03-16T16:04:49.501Z,83.20
2018-03-16T16:10:11.851Z,84.50
2018-03-16T16:12:46.131Z,84.10
2018-03-16T16:15:13.760Z,83.70
2018-03-16T16:17:44.798Z,82.10
2018-03-16T16:20:21.513Z,81.10
2018-03-16T16:22:51.771Z,81.40
2018-03-16T16:25:21.897Z,81.10
2018-03-16T16:27:51.987Z,80.40
2018-03-16T16:30:19.462Z,79.50
2018-03-16T16:35:27.596Z,78.90
2018-03-16T16:50:20.493Z,78.60
2018-03-16T16:53:05.571Z,78.90
2018-03-16T16:55:36.253Z,79.50
2018-03-16T16:58:06.780Z,78.80
2018-03-16T17:03:42.088Z,80.50
2018-03-16T17:06:15.926Z,80.00
2018-03-16T17:11:46.535Z,78.00
2018-03-16T17:14:16.977Z,79.50
2018-03-16T17:16:46.237Z,79.20
2018-03-16T17:19:17.632Z,78.80
2018-03-16T17:21:46.866Z,79.30
2018-03-16T17:24:15.537Z,78.70
2018-03-16T17:26:46.510Z,79.20
2018-03-16T17:29:15.376Z,80.50
2018-03-16T17:31:45.444Z,79.60
2018-03-16T17:34:14.216Z,79.40
2018-03-16T17:36:42.496Z,78.20
2018-03-16T17:39:10.904Z,78.30
2018-03-16T17:41:39.365Z,78.20
2018-03-16T17:44:14.772Z,79.40
2018-03-16T17:46:42.323Z,79.80
2018-03-16T17:49:09.985Z,79.30
2018-03-16T17:51:41.401Z,78.20
2018-03-16T17:54:08.951Z,78.20
2018-03-16T17:56:37.258Z,79.40
2018-03-16T17:59:08.277Z,78.60
2018-03-16T18:01:35.977Z,78.70
2018-03-16T18:04:05.384Z,78.10
2018-03-16T18:09:10.213Z,77.70
2018-03-16T18:11:40.370Z,79.20
2018-03-16T18:14:07.991Z,79.10
2018-03-16T18:16:49.511Z,78.30
2018-03-16T18:19:17.337Z,78.60
2018-03-16T18:21:55.456Z,79.20
2018-03-16T18:24:22.958Z,80.10
2018-03-16T18:27:05.698Z,80.40
2018-03-16T18:29:33.327Z,81.40
2018-03-16T18:32:12.049Z,80.20
2018-03-16T18:34:39.718Z,79.30
2018-03-16T18:37:14.592Z,79.60
2018-03-16T18:39:42.156Z,79.10
2018-03-16T18:42:13.606Z,79.30
2018-03-16T18:44:41.360Z,79.10
2018-03-16T18:47:08.976Z,78.70
2018-03-16T18:49:36.614Z,79.50
2018-03-16T18:52:07.911Z,79.50
2018-03-16T18:54:36.463Z,79.50
2018-03-16T18:57:17.026Z,79.70
2018-03-16T18:59:47.373Z,78.90
2018-03-16T19:02:17.960Z,78.70
2018-03-16T19:04:50.742Z,79.80
2018-03-16T19:07:24.425Z,79.20
2018-03-16T19:09:58.378Z,79.30
2018-03-16T19:12:31.647Z,78.40
2018-03-16T19:15:15.729Z,78.40
2018-03-16T19:17:46.234Z,77.60
2018-03-16T19:20:17.021Z,77.20
2018-03-16T19:23:14.685Z,77.30
2018-03-16T19:25:49.590Z,77.30
2018-03-16T19:28:17.294Z,78.60
2018-03-16T20:17:47.845Z,78.00
2018-03-16T20:23:22.979Z,77.80
2018-03-16T20:28:47.692Z,78.40
2018-03-16T20:31:17.427Z,76.70
2018-03-16T20:33:55.182Z,77.00
2018-03-16T20:36:28.681Z,76.50
2018-03-16T20:38:56.951Z,76.60
2018-03-16T20:41:26.214Z,77.20
2018-03-16T20:43:59.488Z,77.20
2018-03-16T20:46:27.188Z,77.20
2018-03-16T20:48:59.056Z,77.40
2018-03-16T20:51:28.637Z,77.60
2018-03-16T21:06:25.493Z,77.10
2018-03-16T21:08:57.467Z,78.20
2018-03-16T21:15:58.391Z,76.40
2018-03-16T21:23:58.107Z,77.00
2018-03-16T21:26:28.719Z,77.10
2018-03-16T21:28:56.499Z,75.50
2018-03-16T21:31:25.655Z,76.30
2018-03-16T21:33:54.726Z,75.40
2018-03-16T21:36:22.297Z,75.70
2018-03-16T21:38:49.796Z,74.90
2018-03-16T21:41:17.388Z,76.00
2018-03-16T21:43:44.960Z,76.30
2018-03-16T21:46:13.303Z,75.50
2018-03-16T21:48:41.021Z,75.00
2018-03-16T21:51:09.520Z,74.70
2018-03-16T21:53:37.032Z,75.50
2018-03-16T21:56:04.588Z,75.50
2018-03-16T21:58:32.152Z,75.00
2018-03-16T22:00:59.669Z,75.60
2018-03-16T22:03:44.201Z,76.70
2018-03-16T22:06:24.788Z,76.40
2018-03-16T22:08:56.258Z,75.70
2018-03-16T22:11:23.808Z,76.70
2018-03-16T22:13:52.099Z,77.00
2018-03-16T22:16:20.388Z,76.20
2018-03-16T22:18:51.645Z,76.60
2018-03-16T22:21:19.172Z,76.50
2018-03-16T22:23:46.729Z,76.10
2018-03-16T22:26:14.347Z,75.10
2018-03-16T22:28:42.041Z,75.30
2018-03-16T22:36:57.562Z,76.40
2018-03-16T22:39:27.132Z,76.50
2018-03-16T22:41:54.633Z,76.00
2018-03-16T22:44:32.847Z,77.30
2018-03-16T22:47:00.383Z,77.30
2018-03-16T22:52:25.369Z,77.80
2018-03-16T22:54:53.007Z,77.30
2018-03-16T22:57:21.465Z,78.20
2018-03-16T22:59:49.008Z,77.80
2018-03-16T23:02:16.519Z,79.30
2018-03-16T23:04:44.845Z,79.20
2018-03-16T23:07:12.347Z,79.20
2018-03-16T23:09:39.856Z,78.80
2018-03-16T23:12:07.397Z,78.90
2018-03-16T23:14:34.909Z,78.70
2018-03-16T23:17:17.121Z,79.00
2018-03-16T23:19:44.653Z,78.40
2018-03-16T23:22:12.803Z,79.30
2018-03-16T23:24:42.592Z,79.70
2018-03-16T23:27:13.636Z,78.70
2018-03-16T23:30:00.077Z,78.70
2018-03-16T23:32:28.384Z,78.10
2018-03-16T23:34:55.961Z,77.90
2018-03-16T23:37:24.350Z,77.30
2018-03-16T23:39:51.841Z,76.80
2018-03-16T23:42:23.765Z,76.70
2018-03-16T23:44:52.226Z,76.70
2018-03-16T23:47:22.816Z,77.50
2018-03-16T23:49:54.137Z,77.30
2018-03-16T23:52:22.603Z,77.60
2018-03-16T23:54:50.138Z,76.70
2018-03-16T23:57:17.630Z,76.70
2018-03-16T23:59:45.130Z,77.10
